Time;durP1;ratioP1;P1;durP2;ratioP2;P2;SDS_P1;SDS_P2;PMS_P1;PMS_P2;Temp;Humidity;BMP_temperature;BMP_pressure;BME280_temperature;BME280_humidity;BME280_pressure;Samples;Min_cycle;Max_cycle;Signal;HPM_P1;HPM_P2
2022/06/10 00:00:29;;;;;;;7.88;4.45;;;;;;;24.54;44.99;99107.44;4994875;28;20044;-68
2022/06/10 00:02:55;;;;;;;5.88;4.35;;;;;;;24.52;45.00;99104.13;4994064;28;20041;-69
2022/06/10 00:05:25;;;;;;;6.78;4.15;;;;;;;24.53;45.36;99113.91;4994636;28;20487;-69
2022/06/10 00:07:52;;;;;;;9.57;4.22;;;;;;;24.53;45.42;99111.19;4993901;28;20480;-70
2022/06/10 00:10:21;;;;;;;6.47;4.80;;;;;;;24.55;45.42;99117.22;4991309;28;20042;-69
2022/06/10 00:12:47;;;;;;;7.65;4.60;;;;;;;24.57;45.28;99104.31;4994040;28;20512;-68
2022/06/10 00:15:13;;;;;;;16.17;5.55;;;;;;;24.60;45.29;99116.53;4994127;28;20062;-70
2022/06/10 00:17:39;;;;;;;11.10;4.72;;;;;;;24.63;45.12;99119.63;4993560;28;20047;-68
2022/06/10 00:20:07;;;;;;;10.32;4.28;;;;;;;24.65;45.23;99117.53;4994168;28;20042;-68
2022/06/10 00:22:33;;;;;;;5.85;4.65;;;;;;;24.68;44.99;99116.28;4994034;28;20045;-68
2022/06/10 00:24:58;;;;;;;8.25;4.80;;;;;;;24.68;44.79;99117.06;4994577;28;20042;-67
2022/06/10 00:27:25;;;;;;;10.77;4.57;;;;;;;24.72;44.45;99122.06;4993433;28;20137;-70
2022/06/10 00:29:50;;;;;;;6.65;4.65;;;;;;;24.72;44.82;99127.50;4991876;28;20527;-67
2022/06/10 00:32:17;;;;;;;7.13;4.00;;;;;;;24.73;44.66;99124.53;4988654;28;20124;-70
2022/06/10 00:34:43;;;;;;;7.97;4.40;;;;;;;24.73;44.75;99134.56;4991100;28;20097;-68
2022/06/10 00:37:11;;;;;;;15.23;5.53;;;;;;;24.74;44.22;99134.31;4991106;28;20049;-69
2022/06/10 00:39:37;;;;;;;4.93;3.65;;;;;;;24.74;44.31;99133.50;4990662;28;20038;-69
2022/06/10 00:42:05;;;;;;;9.00;4.75;;;;;;;24.74;44.21;99141.63;4990737;28;20424;-69
2022/06/10 00:44:35;;;;;;;6.68;3.88;;;;;;;24.74;43.96;99144.31;4991167;28;20125;-68
2022/06/10 00:47:26;;;;;;;7.70;3.58;;;;;;;24.74;43.96;99141.63;4991371;28;20041;-68
2022/06/10 00:50:24;;;;;;;6.00;3.80;;;;;;;24.72;43.82;99144.53;4992584;28;20669;-69
2022/06/10 00:52:56;;;;;;;9.10;3.90;;;;;;;24.72;44.03;99149.13;4989708;28;20417;-69
2022/06/10 00:55:28;;;;;;;6.82;4.03;;;;;;;24.70;44.03;99148.53;4990153;28;20042;-70
2022/06/10 00:57:59;;;;;;;6.32;3.90;;;;;;;24.71;43.70;99152.88;4990327;28;20401;-68
2022/06/10 01:00:25;;;;;;;8.02;4.30;;;;;;;24.71;43.69;99152.88;4989641;28;20037;-69
2022/06/10 01:02:50;;;;;;;6.93;4.00;;;;;;;24.70;43.67;99157.47;4988430;28;20038;-70
2022/06/10 01:05:21;;;;;;;5.00;3.70;;;;;;;24.69;43.92;99155.78;4990399;28;20045;-69
2022/06/10 01:07:52;;;;;;;5.67;4.37;;;;;;;24.69;43.95;99163.91;4989338;28;20034;-68
2022/06/10 01:10:18;;;;;;;6.43;4.10;;;;;;;24.70;43.61;99173.72;4990140;28;20026;-69
2022/06/10 01:13:18;;;;;;;6.43;4.20;;;;;;;24.70;43.65;99170.16;4990240;28;20114;-68
2022/06/10 01:16:04;;;;;;;6.45;4.22;;;;;;;24.67;43.91;99169.53;4990886;28;20030;-69
2022/06/10 01:18:32;;;;;;;7.70;4.57;;;;;;;24.67;43.89;99169.53;4959814;28;20050;-69
2022/06/10 01:21:28;;;;;;;7.03;4.05;;;;;;;24.70;43.76;99172.88;4990328;28;20038;-69
2022/06/10 01:24:00;;;;;;;4.88;4.18;;;;;;;24.65;43.85;99168.91;4989598;28;20034;-68
2022/06/10 01:29:37;;;;;;;5.38;3.83;;;;;;;24.64;43.93;99180.78;4990453;28;20037;-68
2022/06/10 01:32:10;;;;;;;6.65;3.90;;;;;;;24.63;43.71;99181.81;4989895;28;20034;-68
2022/06/10 01:34:46;;;;;;;5.95;3.85;;;;;;;24.64;43.83;99186.19;4988957;28;20030;-71
2022/06/10 01:37:20;;;;;;;9.05;4.43;;;;;;;24.64;44.06;99183.50;4989778;28;20062;-68
2022/06/10 01:39:59;;;;;;;5.28;3.92;;;;;;;24.65;43.99;99187.03;4990548;28;20038;-68
2022/06/10 01:42:35;;;;;;;7.97;3.95;;;;;;;24.64;44.20;99183.50;4992474;28;20061;-69
2022/06/10 01:45:30;;;;;;;4.55;3.75;;;;;;;24.62;44.30;99184.78;4982535;28;20436;-68
2022/06/10 01:48:04;;;;;;;6.57;4.10;;;;;;;24.61;44.51;99183.97;4993278;28;20042;-69
2022/06/10 01:50:55;;;;;;;8.65;5.18;;;;;;;24.61;44.62;99180.41;4994064;28;20049;-68
2022/06/10 01:53:50;;;;;;;6.32;3.90;;;;;;;24.59;44.72;99163.56;4995016;28;20034;-69
2022/06/10 01:56:30;;;;;;;4.78;3.88;;;;;;;24.58;44.59;99160.06;4993659;28;20113;-68
2022/06/10 01:59:07;;;;;;;5.20;3.58;;;;;;;24.58;44.68;99162.75;4994981;28;20190;-68
2022/06/10 02:01:42;;;;;;;5.97;4.25;;;;;;;24.58;45.25;99162.75;4993546;28;20048;-68
2022/06/10 02:04:30;;;;;;;4.57;3.15;;;;;;;24.57;44.91;99161.09;4995095;28;20034;-69
2022/06/10 02:07:08;;;;;;;6.07;3.88;;;;;;;24.57;44.92;99162.97;4995013;28;20033;-70
2022/06/10 02:09:42;;;;;;;5.03;4.07;;;;;;;24.57;45.02;99161.09;4993185;28;20045;-68
2022/06/10 02:12:21;;;;;;;5.15;3.65;;;;;;;24.58;45.09;99170.88;4994579;28;20074;-69
2022/06/10 02:15:22;;;;;;;6.20;4.45;;;;;;;24.60;44.80;99173.34;4991967;28;20030;-69
2022/06/10 02:17:53;;;;;;;4.45;3.72;;;;;;;24.60;45.21;99181.44;4996345;28;20093;-69
2022/06/10 02:20:24;;;;;;;4.88;3.67;;;;;;;24.62;45.29;99187.47;4996802;28;20138;-69
2022/06/10 02:22:53;;;;;;;4.50;3.70;;;;;;;24.66;44.85;99188.69;4995173;28;20045;-69
2022/06/10 02:25:25;;;;;;;7.85;3.75;;;;;;;24.67;44.82;99188.47;4994712;28;20042;-70
2022/06/10 02:27:58;;;;;;;4.22;3.60;;;;;;;24.69;44.83;99193.66;4993600;28;20050;-69
2022/06/10 02:30:36;;;;;;;3.17;2.85;;;;;;;24.74;44.89;99195.72;4994655;28;20133;-69
2022/06/10 02:33:02;;;;;;;6.15;3.58;;;;;;;24.87;44.89;99192.91;4992575;28;20525;-70
2022/06/10 02:35:36;;;;;;;4.97;3.47;;;;;;;24.99;44.56;99193.00;4995128;28;20066;-69
2022/06/10 02:38:18;;;;;;;5.95;3.80;;;;;;;25.03;44.22;99194.19;4994836;28;20061;-67
2022/06/10 02:40:57;;;;;;;4.47;3.45;;;;;;;25.05;44.21;99196.69;4995300;28;20034;-67
2022/06/10 02:43:32;;;;;;;3.40;3.05;;;;;;;25.04;44.03;99201.25;4994115;28;20038;-68
2022/06/10 02:46:13;;;;;;;6.85;3.95;;;;;;;25.04;44.38;99200.44;4995159;28;20030;-67
2022/06/10 02:48:59;;;;;;;5.55;3.70;;;;;;;25.05;44.65;99194.78;4994344;28;20108;-67
2022/06/10 02:51:25;;;;;;;4.40;3.88;;;;;;;25.07;44.67;99192.69;4994348;28;20512;-69
2022/06/10 02:53:51;;;;;;;5.80;3.38;;;;;;;25.09;44.41;99203.28;4994118;28;20034;-69
2022/06/10 02:56:22;;;;;;;5.03;3.25;;;;;;;25.09;44.25;99206.81;4993346;28;20038;-69
2022/06/10 03:02:03;;;;;;;5.63;3.58;;;;;;;25.10;44.14;99204.94;4994572;28;20080;-68
2022/06/10 03:04:48;;;;;;;4.82;3.75;;;;;;;25.14;44.44;99208.84;4993338;28;20038;-70
2022/06/10 03:07:39;;;;;;;4.57;3.78;;;;;;;25.19;44.64;99209.03;4992830;28;20041;-69
2022/06/10 03:10:39;;;;;;;6.88;3.60;;;;;;;25.27;44.57;99202.47;4993185;28;20045;-68
2022/06/10 03:13:32;;;;;;;4.38;3.17;;;;;;;25.45;44.15;99177.28;4992609;28;20035;-69
2022/06/10 03:15:57;;;;;;;3.78;2.83;;;;;;;25.69;43.27;99182.81;4992911;28;20400;-69
2022/06/10 03:18:44;;;;;;;4.70;3.15;;;;;;;25.97;42.47;99182.22;4993046;28;20125;-68
2022/06/10 03:21:23;;;;;;;3.47;2.85;;;;;;;26.26;41.74;99176.16;4993504;28;20034;-68
2022/06/10 03:24:24;;;;;;;3.67;3.20;;;;;;;26.56;41.10;99180.69;4994172;28;20066;-70
2022/06/10 03:26:58;;;;;;;4.82;3.33;;;;;;;26.80;40.60;99185.13;4993619;28;20070;-69
2022/06/10 03:29:43;;;;;;;4.93;3.15;;;;;;;27.01;40.04;99190.16;4991905;28;20042;-68
2022/06/10 03:32:19;;;;;;;3.13;2.72;;;;;;;27.14;39.75;99192.63;4991896;28;20045;-68
2022/06/10 03:34:53;;;;;;;4.03;2.90;;;;;;;27.14;39.81;99189.06;4991193;28;20034;-68
2022/06/10 03:37:22;;;;;;;6.88;2.80;;;;;;;27.13;39.88;99188.25;4993220;28;20042;-69
2022/06/10 03:39:52;;;;;;;4.25;3.03;;;;;;;27.11;39.82;99191.22;4993292;28;20038;-69
2022/06/10 03:42:20;;;;;;;3.40;2.95;;;;;;;27.07;39.71;99181.06;4991937;28;20241;-70
2022/06/10 03:44:49;;;;;;;4.50;2.90;;;;;;;27.02;40.00;99180.97;4993531;28;20525;-69
2022/06/10 03:47:23;;;;;;;3.88;2.72;;;;;;;26.99;39.66;99186.88;4992980;28;20037;-68
2022/06/10 03:50:03;;;;;;;4.18;2.97;;;;;;;27.04;39.74;99189.69;4990881;28;20049;-68
2022/06/10 03:52:32;;;;;;;2.60;2.25;;;;;;;27.09;39.84;99197.94;4992796;28;20404;-69
2022/06/10 03:54:57;;;;;;;2.85;2.40;;;;;;;27.08;39.86;99202.56;4993117;28;20046;-69
2022/06/10 03:57:23;;;;;;;5.45;3.17;;;;;;;27.01;39.94;99198.31;4992792;28;20675;-70
2022/06/10 03:59:49;;;;;;;3.45;3.10;;;;;;;26.93;40.06;99194.88;4992476;28;20034;-69
2022/06/10 04:02:15;;;;;;;3.05;2.67;;;;;;;26.88;40.11;99194.78;4992903;28;20402;-70
2022/06/10 04:04:45;;;;;;;4.70;2.97;;;;;;;26.85;40.23;99206.13;4992382;28;20523;-70
2022/06/10 04:07:17;;;;;;;4.80;3.33;;;;;;;26.79;40.56;99202.47;4991461;28;20105;-68
2022/06/10 04:09:43;;;;;;;4.28;3.50;;;;;;;26.79;40.77;99201.63;4993019;28;20066;-68
2022/06/10 04:12:10;;;;;;;4.88;3.15;;;;;;;26.79;40.71;99205.16;4993148;28;20061;-69
2022/06/10 04:14:35;;;;;;;4.80;3.88;;;;;;;26.80;40.97;99195.13;4992813;28;20039;-67
2022/06/10 04:17:01;;;;;;;3.80;2.95;;;;;;;26.78;40.85;99195.34;4992742;28;20044;-69
2022/06/10 04:19:27;;;;;;;3.67;3.13;;;;;;;26.78;40.90;99189.91;4992964;28;20036;-68
2022/06/10 04:21:53;;;;;;;5.28;3.58;;;;;;;26.83;40.46;99196.56;4992507;28;20034;-69
2022/06/10 04:24:18;;;;;;;4.28;3.30;;;;;;;26.88;40.90;99207.53;4992785;28;20046;-70
2022/06/10 04:26:44;;;;;;;3.92;3.30;;;;;;;26.93;40.95;99199.50;4991989;28;20042;-69
2022/06/10 04:29:12;;;;;;;5.68;3.60;;;;;;;26.97;40.52;99195.25;4992528;28;20374;-69
2022/06/10 04:31:38;;;;;;;3.80;3.42;;;;;;;27.05;40.46;99199.50;4992680;28;20042;-67
2022/06/10 04:34:04;;;;;;;4.38;3.78;;;;;;;27.21;40.26;99196.03;4992643;28;20034;-70
2022/06/10 04:36:29;;;;;;;4.10;3.20;;;;;;;27.49;39.67;99204.50;4993020;28;20120;-69
2022/06/10 04:38:55;;;;;;;4.63;3.50;;;;;;;27.75;39.17;99199.56;4992212;28;20038;-68
2022/06/10 04:41:20;;;;;;;4.80;3.28;;;;;;;27.99;38.72;99205.72;4992867;28;20030;-68
2022/06/10 04:43:46;;;;;;;4.13;3.13;;;;;;;28.18;38.46;99211.81;4992508;28;20038;-69
2022/06/10 04:46:21;;;;;;;4.85;3.42;;;;;;;28.37;38.21;99211.59;4992454;28;20492;-69
2022/06/10 04:48:46;;;;;;;4.80;3.50;;;;;;;28.51;37.73;99210.19;4991824;28;20030;-69
2022/06/10 04:51:12;;;;;;;4.40;3.30;;;;;;;28.62;37.61;99205.75;4992366;28;20505;-69
2022/06/10 04:53:38;;;;;;;4.75;3.13;;;;;;;28.71;37.96;99211.59;4989108;28;20599;-70
2022/06/10 04:56:03;;;;;;;3.90;3.15;;;;;;;28.79;37.65;99211.19;4992278;28;20053;-69
2022/06/10 04:58:29;;;;;;;3.85;3.35;;;;;;;28.85;37.54;99207.47;4992047;28;20519;-68
2022/06/10 05:00:54;;;;;;;4.50;3.38;;;;;;;28.89;37.63;99207.81;4991746;28;20038;-68
2022/06/10 05:03:20;;;;;;;4.07;3.60;;;;;;;28.84;37.59;99203.09;4990068;28;20034;-68
2022/06/10 05:05:45;;;;;;;6.00;3.42;;;;;;;28.90;37.38;99199.38;4991164;28;20037;-67
2022/06/10 05:08:13;;;;;;;4.72;3.92;;;;;;;28.97;37.18;99203.81;4992107;28;20034;-69
2022/06/10 05:10:39;;;;;;;4.65;4.00;;;;;;;29.01;37.29;99204.97;4992230;28;20061;-69
2022/06/10 05:13:05;;;;;;;5.38;4.35;;;;;;;29.05;37.44;99208.81;4990683;28;20061;-69
2022/06/10 05:15:30;;;;;;;8.98;3.22;;;;;;;29.10;37.06;99213.56;4991693;28;20088;-69
2022/06/10 05:17:58;;;;;;;3.80;3.40;;;;;;;29.12;36.68;99214.94;4990758;28;20472;-69
2022/06/10 05:20:28;;;;;;;4.60;3.80;;;;;;;29.12;37.21;99220.38;4991893;28;20038;-70
2022/06/10 05:22:53;;;;;;;4.00;3.55;;;;;;;29.12;37.16;99219.56;4991393;28;20034;-69
2022/06/10 05:25:19;;;;;;;4.20;3.17;;;;;;;29.08;36.66;99211.91;4991317;28;20045;-69
2022/06/10 05:27:46;;;;;;;5.03;4.43;;;;;;;29.07;36.72;99215.69;4990979;28;20073;-70
2022/06/10 05:30:17;;;;;;;4.28;3.75;;;;;;;29.03;36.86;99219.19;4991605;28;20042;-68
2022/06/10 05:32:42;;;;;;;4.30;3.90;;;;;;;28.98;37.51;99216.38;4991880;28;20077;-70
2022/06/10 05:35:08;;;;;;;6.68;3.85;;;;;;;28.92;37.08;99219.00;4990421;28;20061;-69
2022/06/10 05:37:34;;;;;;;5.63;3.75;;;;;;;28.89;37.50;99224.97;4990058;28;20038;-69
2022/06/10 05:40:00;;;;;;;4.88;4.40;;;;;;;28.84;37.60;99222.16;4990428;28;20041;-70
2022/06/10 05:42:26;;;;;;;4.53;3.83;;;;;;;28.80;37.60;99223.72;4990227;28;20042;-69
2022/06/10 05:44:52;;;;;;;5.60;3.67;;;;;;;28.75;37.70;99220.91;4991325;28;20038;-69
2022/06/10 05:47:30;;;;;;;4.20;3.35;;;;;;;28.71;37.51;99223.28;4990958;28;20484;-69
2022/06/10 05:49:59;;;;;;;5.97;3.70;;;;;;;28.66;37.52;99225.13;4989195;28;20063;-68
2022/06/10 05:52:27;;;;;;;5.95;4.57;;;;;;;28.62;37.94;99227.50;4990548;28;20049;-68
2022/06/10 05:54:55;;;;;;;4.80;3.92;;;;;;;28.58;37.69;99215.47;4991546;28;20104;-68
2022/06/10 05:57:20;;;;;;;6.78;3.50;;;;;;;28.54;38.01;99228.75;4989327;28;20484;-67
2022/06/10 05:59:52;;;;;;;4.45;4.05;;;;;;;28.55;38.21;99224.13;4991430;28;20113;-69
2022/06/10 06:02:18;;;;;;;5.53;4.15;;;;;;;28.52;37.88;99220.00;4990211;28;20058;-67
2022/06/10 06:04:44;;;;;;;6.32;4.10;;;;;;;28.50;38.21;99230.31;4989535;28;20096;-67
2022/06/10 06:07:17;;;;;;;6.20;5.40;;;;;;;28.48;38.70;99214.25;4990188;28;20038;-68
2022/06/10 06:09:42;;;;;;;8.55;5.38;;;;;;;28.50;38.98;99221.34;4989638;28;20096;-68
2022/06/10 06:12:09;;;;;;;5.55;3.63;;;;;;;28.48;38.31;99227.84;4990532;28;20046;-68
2022/06/10 06:14:34;;;;;;;4.13;3.75;;;;;;;28.46;38.51;99226.41;4990271;28;20044;-68
2022/06/10 06:17:02;;;;;;;5.10;4.60;;;;;;;28.43;38.43;99232.38;4989514;28;20038;-69
2022/06/10 06:19:29;;;;;;;9.07;4.57;;;;;;;28.33;38.39;99233.84;4989844;28;20042;-69
2022/06/10 06:21:54;;;;;;;5.35;4.25;;;;;;;28.25;38.83;99234.25;4989261;28;20040;-69
2022/06/10 06:24:20;;;;;;;5.25;3.58;;;;;;;28.19;38.75;99237.94;4991253;28;20501;-68
2022/06/10 06:26:46;;;;;;;5.05;3.97;;;;;;;28.17;38.81;99235.47;4991968;28;20057;-67
2022/06/10 06:29:12;;;;;;;4.75;4.13;;;;;;;28.11;38.77;99241.06;4992122;28;20097;-68
2022/06/10 06:31:37;;;;;;;5.13;4.20;;;;;;;28.07;38.82;99234.44;4993067;28;20042;-69
2022/06/10 06:34:04;;;;;;;8.60;3.97;;;;;;;28.02;39.12;99233.25;4993198;28;20038;-69
2022/06/10 06:36:45;;;;;;;4.72;3.88;;;;;;;28.00;39.62;99229.13;4993691;28;20041;-68
2022/06/10 06:39:11;;;;;;;4.03;3.63;;;;;;;27.95;39.33;99221.72;4992434;28;20130;-69
2022/06/10 06:41:37;;;;;;;5.55;4.50;;;;;;;27.93;39.29;99217.59;4992725;28;20038;-68
2022/06/10 06:44:05;;;;;;;6.88;4.18;;;;;;;27.87;39.51;99220.22;4994509;28;20508;-68
2022/06/10 06:46:32;;;;;;;6.05;4.43;;;;;;;27.86;39.24;99221.28;4993998;28;20548;-69
2022/06/10 06:48:57;;;;;;;5.72;4.63;;;;;;;27.84;39.14;99219.88;4992204;28;20054;-67
2022/06/10 06:51:23;;;;;;;4.85;4.30;;;;;;;27.82;39.48;99216.56;4993541;28;20080;-69
2022/06/10 06:53:48;;;;;;;5.05;4.55;;;;;;;27.80;39.57;99216.00;4993778;28;20053;-69
2022/06/10 06:56:14;;;;;;;6.05;4.20;;;;;;;27.73;39.50;99221.56;4993003;28;20037;-70
2022/06/10 06:58:39;;;;;;;5.38;4.47;;;;;;;27.78;39.25;99218.13;4991047;28;20092;-68
2022/06/10 07:01:05;;;;;;;5.80;4.90;;;;;;;27.75;39.77;99216.72;4991482;28;20116;-68
2022/06/10 07:03:30;;;;;;;6.07;5.47;;;;;;;27.75;40.37;99221.31;4994670;28;20042;-68
2022/06/10 07:05:56;;;;;;;6.03;5.28;;;;;;;27.79;40.32;99226.06;4995420;28;20184;-67
2022/06/10 07:08:21;;;;;;;7.00;4.57;;;;;;;27.78;40.27;99227.13;4994749;28;20073;-68
2022/06/10 07:10:47;;;;;;;6.75;4.90;;;;;;;27.76;39.96;99218.38;4995534;28;20046;-68
2022/06/10 07:13:13;;;;;;;6.95;4.82;;;;;;;27.72;40.01;99218.00;4994851;28;20165;-71
2022/06/10 07:15:42;;;;;;;6.80;5.72;;;;;;;27.72;40.81;99223.44;4995256;28;20042;-70
2022/06/10 07:18:07;;;;;;;7.22;5.90;;;;;;;27.72;40.90;99220.72;4994160;28;20038;-69
2022/06/10 07:20:35;;;;;;;6.80;6.05;;;;;;;27.75;41.05;99224.03;4993192;28;20189;-70
2022/06/10 07:23:01;;;;;;;9.32;6.20;;;;;;;27.72;41.54;99228.88;4993368;28;20045;-72
2022/06/10 07:25:29;;;;;;;10.82;6.47;;;;;;;27.70;41.29;99225.59;4992493;28;20034;-70
2022/06/10 07:27:55;;;;;;;8.38;6.47;;;;;;;27.66;41.52;99227.16;4992530;28;20129;-69
2022/06/10 07:30:25;;;;;;;8.02;5.90;;;;;;;27.57;41.49;99223.16;4994653;28;20046;-69
2022/06/10 07:32:51;;;;;;;7.05;6.15;;;;;;;27.51;41.83;99229.56;4994003;28;20543;-70
2022/06/10 07:35:18;;;;;;;8.65;5.90;;;;;;;27.42;41.57;99229.06;4990700;28;20034;-70
2022/06/10 07:37:45;;;;;;;9.65;6.22;;;;;;;27.35;42.16;99223.75;4993780;28;20038;-72
2022/06/10 07:41:56;;;;;;;9.68;5.60;;;;;;;27.30;41.75;99214.69;4992639;28;20034;-70
2022/06/10 07:43:03;;;;;;;9.20;7.20;;;;;;;27.21;41.81;99220.47;4975211;28;20138;-71
2022/06/10 07:45:29;;;;;;;9.20;6.07;;;;;;;27.19;41.91;99235.34;4981495;28;20042;-71
2022/06/10 07:47:55;;;;;;;7.75;6.43;;;;;;;27.14;41.78;99227.09;4994963;28;20401;-71
2022/06/10 07:50:24;;;;;;;6.85;6.15;;;;;;;27.07;42.22;99224.50;4995168;28;20062;-72
2022/06/10 07:52:50;;;;;;;8.13;6.47;;;;;;;27.03;41.66;99226.88;4993665;28;20041;-71
2022/06/10 07:55:17;;;;;;;7.55;5.88;;;;;;;27.00;42.20;99227.34;4994713;28;20030;-72
2022/06/10 07:57:43;;;;;;;6.20;5.60;;;;;;;26.96;41.92;99226.19;4994924;28;20034;-70
2022/06/10 08:00:10;;;;;;;7.00;6.07;;;;;;;26.93;42.07;99226.66;4994868;28;20455;-70
2022/06/10 08:02:37;;;;;;;6.90;5.95;;;;;;;26.90;42.10;99225.25;4993777;28;20045;-72
2022/06/10 08:05:04;;;;;;;7.13;6.28;;;;;;;26.89;42.33;99220.03;4994394;28;20397;-71
2022/06/10 08:07:30;;;;;;;6.82;5.88;;;;;;;26.88;42.26;99231.94;4993642;28;20489;-73
2022/06/10 08:09:55;;;;;;;7.93;6.60;;;;;;;26.86;42.37;99231.34;4994033;28;20041;-71
2022/06/10 08:12:21;;;;;;;7.38;5.53;;;;;;;26.83;42.45;99229.13;4993769;28;20401;-70
2022/06/10 08:14:47;;;;;;;8.15;6.43;;;;;;;26.82;42.12;99222.06;4994887;28;20045;-73
2022/06/10 08:17:13;;;;;;;7.15;6.43;;;;;;;26.80;42.00;99231.25;4993239;28;20034;-70
2022/06/10 08:19:39;;;;;;;7.10;6.40;;;;;;;26.79;42.25;99221.47;4994847;28;20488;-72
2022/06/10 08:24:49;;;;;;;9.02;5.35;;;;;;;26.73;41.50;99219.63;4994545;28;20520;-72
2022/06/10 08:27:15;;;;;;;6.55;5.43;;;;;;;26.74;41.53;99213.16;4993652;28;20069;-72
2022/06/10 08:29:40;;;;;;;9.05;5.55;;;;;;;26.71;41.28;99219.03;4994408;28;20038;-72
2022/06/10 08:32:06;;;;;;;6.03;4.93;;;;;;;26.71;40.83;99227.19;4993817;28;20444;-73
2022/06/10 08:34:32;;;;;;;6.28;4.82;;;;;;;26.70;41.14;99217.38;4994142;28;20032;-73
2022/06/10 08:37:01;;;;;;;6.05;4.80;;;;;;;26.72;40.50;99219.88;4992557;28;20223;-73
2022/06/10 08:39:28;;;;;;;5.25;4.53;;;;;;;26.68;40.75;99230.41;4993250;28;20098;-73
2022/06/10 08:41:56;;;;;;;6.13;4.32;;;;;;;26.66;40.56;99225.19;4993965;28;20045;-71
2022/06/10 08:44:27;;;;;;;5.82;4.55;;;;;;;26.64;40.48;99221.06;4993814;28;20038;-72
2022/06/10 08:47:13;;;;;;;5.68;4.72;;;;;;;26.61;40.34;99221.53;4993936;28;20030;-71
2022/06/10 08:49:50;;;;;;;6.43;4.40;;;;;;;26.58;40.05;99214.69;4992269;28;20406;-71
2022/06/10 08:52:41;;;;;;;7.50;4.30;;;;;;;26.57;40.02;99228.47;4990823;28;20038;-73
2022/06/10 08:55:18;;;;;;;5.53;4.38;;;;;;;26.56;40.01;99232.25;4993964;28;20088;-71
2022/06/10 08:57:47;;;;;;;5.65;4.22;;;;;;;26.55;40.21;99219.72;4993429;28;20038;-70
2022/06/10 09:00:18;;;;;;;7.85;5.25;;;;;;;26.55;40.11;99217.03;4992594;28;20088;-72
2022/06/10 09:03:05;;;;;;;6.80;4.63;;;;;;;26.54;40.14;99223.53;4993293;28;20477;-72
2022/06/10 09:05:39;;;;;;;5.43;4.60;;;;;;;26.53;40.28;99219.97;4994081;28;20065;-71
2022/06/10 09:08:13;;;;;;;7.18;4.50;;;;;;;26.52;40.09;99218.31;4993270;28;20041;-71
2022/06/10 09:10:49;;;;;;;4.82;4.18;;;;;;;26.53;39.62;99227.31;4993433;28;20073;-73
2022/06/10 09:13:30;;;;;;;5.28;4.70;;;;;;;26.54;39.18;99228.97;4993233;28;20449;-72
2022/06/10 09:16:17;;;;;;;5.10;3.78;;;;;;;26.52;39.43;99225.66;4993534;28;20038;-73
2022/06/10 09:18:57;;;;;;;7.38;4.38;;;;;;;26.48;39.62;99226.13;4993458;28;20102;-71
2022/06/10 09:21:53;;;;;;;6.07;4.18;;;;;;;26.45;39.45;99223.84;4992997;28;20125;-73
2022/06/10 09:24:24;;;;;;;9.88;5.03;;;;;;;26.44;39.36;99229.53;4990076;28;20050;-73
2022/06/10 09:27:03;;;;;;;4.93;3.50;;;;;;;26.41;39.12;99219.94;4993029;28;20047;-72
2022/06/10 09:29:29;;;;;;;6.50;4.65;;;;;;;26.39;39.05;99216.66;4992755;28;20046;-72
2022/06/10 09:32:41;;;;;;;5.65;3.95;;;;;;;26.40;39.03;99212.06;4993170;28;20504;-73
2022/06/10 09:35:19;;;;;;;5.05;4.15;;;;;;;26.37;39.18;99216.06;4985283;28;20058;-71
2022/06/10 09:38:02;;;;;;;8.10;4.35;;;;;;;26.37;39.37;99210.66;4992945;28;20086;-72
2022/06/10 09:40:38;;;;;;;4.47;4.03;;;;;;;26.38;39.35;99214.19;4992727;28;20393;-71
2022/06/10 09:43:16;;;;;;;5.32;3.88;;;;;;;26.38;39.69;99215.00;4992613;28;20114;-73
2022/06/10 09:45:54;;;;;;;6.63;4.85;;;;;;;26.40;39.74;99214.78;4993051;28;20037;-72
2022/06/10 09:48:28;;;;;;;6.47;4.15;;;;;;;26.41;39.25;99227.28;4993036;28;20034;-71
2022/06/10 09:51:35;;;;;;;5.13;3.75;;;;;;;26.43;39.60;99228.69;4992573;28;20049;-73
2022/06/10 09:54:07;;;;;;;6.93;4.68;;;;;;;26.39;39.37;99222.09;4992339;28;20540;-72
2022/06/10 09:56:58;;;;;;;6.97;3.80;;;;;;;26.39;39.53;99223.97;4992162;28;20054;-71
2022/06/10 09:59:36;;;;;;;5.03;4.47;;;;;;;26.37;39.64;99215.22;4993143;28;20043;-72
2022/06/10 10:02:01;;;;;;;5.55;4.53;;;;;;;26.35;39.61;99220.91;4992007;28;20052;-72
2022/06/10 10:04:39;;;;;;;6.45;4.40;;;;;;;26.37;39.21;99213.34;4995247;28;20489;-73
2022/06/10 10:07:40;;;;;;;7.55;3.47;;;;;;;26.37;39.36;99207.94;4996640;28;20034;-73
2022/06/10 10:10:11;;;;;;;5.18;4.07;;;;;;;26.35;39.56;99215.47;4980328;28;20061;-71
2022/06/10 10:12:58;;;;;;;5.75;4.40;;;;;;;26.35;39.44;99212.75;4995959;28;20045;-72
2022/06/10 10:16:12;;;;;;;4.35;3.95;;;;;;;26.34;38.84;99213.81;4996604;28;20243;-72
2022/06/10 10:18:56;;;;;;;4.47;4.00;;;;;;;26.31;39.21;99217.84;4992923;28;20408;-72
2022/06/10 10:21:44;;;;;;;4.18;3.78;;;;;;;26.31;39.23;99212.41;4996658;28;20120;-73
2022/06/10 10:24:19;;;;;;;6.78;3.75;;;;;;;26.32;38.33;99216.75;4995618;28;20030;-72
2022/06/10 10:26:46;;;;;;;4.32;3.70;;;;;;;26.33;38.79;99212.97;4996092;28;20046;-72
2022/06/10 10:29:25;;;;;;;4.07;3.67;;;;;;;26.35;38.71;99220.91;4995964;28;20509;-72
2022/06/10 10:32:30;;;;;;;5.05;3.42;;;;;;;26.31;38.72;99207.00;4996531;28;20026;-72
2022/06/10 10:35:03;;;;;;;5.80;4.03;;;;;;;26.28;38.73;99203.88;4996224;28;20038;-72
2022/06/10 10:37:35;;;;;;;4.18;3.78;;;;;;;26.29;38.78;99210.97;4996080;28;20449;-71
2022/06/10 10:40:15;;;;;;;3.90;3.47;;;;;;;26.29;38.79;99209.09;4996155;28;20072;-71
2022/06/10 10:42:43;;;;;;;7.28;3.95;;;;;;;26.28;38.18;99212.03;4995729;28;20030;-73
2022/06/10 10:45:35;;;;;;;6.13;3.70;;;;;;;26.30;37.98;99215.34;4996260;28;20092;-71
2022/06/10 10:48:26;;;;;;;7.28;3.38;;;;;;;26.26;38.06;99200.59;4996233;28;20030;-72
2022/06/10 10:51:19;;;;;;;4.43;3.65;;;;;;;26.28;37.67;99202.03;4995615;28;20498;-72
2022/06/10 10:53:55;;;;;;;11.63;3.53;;;;;;;26.28;38.02;99204.72;4992859;28;20069;-69
2022/06/10 10:56:35;;;;;;;6.82;3.60;;;;;;;26.29;37.96;99209.09;4991078;28;20041;-68
2022/06/10 10:59:00;;;;;;;5.30;3.40;;;;;;;26.31;38.13;99217.00;4992594;28;20481;-68
2022/06/10 11:01:51;;;;;;;6.57;3.50;;;;;;;26.34;37.99;99208.41;4992415;28;20037;-67
2022/06/10 11:04:36;;;;;;;6.33;3.63;;;;;;;26.31;38.13;99211.56;4992349;28;20068;-69
2022/06/10 11:07:11;;;;;;;7.78;3.78;;;;;;;26.31;38.01;99208.84;4987852;28;20034;-69
2022/06/10 11:09:48;;;;;;;9.63;3.40;;;;;;;26.32;38.18;99210.50;4992009;28;20104;-70
2022/06/10 11:12:19;;;;;;;3.67;3.22;;;;;;;26.30;38.18;99208.03;4991177;28;20034;-70
2022/06/10 11:14:56;;;;;;;6.03;3.47;;;;;;;26.30;38.31;99212.63;4990764;28;20038;-70
2022/06/10 11:17:24;;;;;;;7.07;4.05;;;;;;;26.30;38.30;99209.91;4991035;28;20034;-70
2022/06/10 11:19:57;;;;;;;7.90;4.30;;;;;;;26.33;38.61;99210.25;4993068;28;20042;-69
2022/06/10 11:22:38;;;;;;;6.40;3.78;;;;;;;26.33;38.47;99214.88;4995392;28;20042;-69
2022/06/10 11:25:03;;;;;;;7.47;3.70;;;;;;;26.29;38.49;99219.09;4994820;28;20038;-70
2022/06/10 11:27:33;;;;;;;6.95;3.50;;;;;;;26.30;38.13;99218.06;4990276;28;20047;-69
2022/06/10 11:30:05;;;;;;;6.45;3.58;;;;;;;26.32;38.28;99213.22;4993195;28;20591;-69
2022/06/10 11:32:42;;;;;;;8.70;3.55;;;;;;;26.31;37.88;99214.28;4994832;28;20038;-67
2022/06/10 11:35:28;;;;;;;9.05;3.95;;;;;;;26.30;37.62;99216.19;4994722;28;20037;-69
2022/06/10 11:38:17;;;;;;;3.78;3.25;;;;;;;26.33;37.68;99209.44;4994001;28;20038;-69
2022/06/10 11:40:50;;;;;;;7.07;3.40;;;;;;;26.33;37.84;99212.97;4990904;28;20034;-70
2022/06/10 11:43:31;;;;;;;7.65;3.45;;;;;;;26.34;37.62;99220.06;4991892;28;20034;-69
2022/06/10 11:46:04;;;;;;;4.93;3.60;;;;;;;26.33;37.90;99218.41;4995167;28;20048;-70
2022/06/10 11:48:42;;;;;;;4.68;3.25;;;;;;;26.33;38.09;99212.97;4992636;28;20120;-71
2022/06/10 11:51:16;;;;;;;6.05;3.28;;;;;;;26.31;37.93;99219.69;4991726;28;20164;-69
2022/06/10 11:53:55;;;;;;;4.32;3.55;;;;;;;26.32;38.10;99215.94;4991614;28;20038;-68
2022/06/10 12:02:17;;;;;;;4.22;3.53;;;;;;;26.29;38.17;99205.53;4993537;28;20049;-70
2022/06/10 12:04:48;;;;;;;4.75;3.42;;;;;;;26.29;38.42;99205.53;4994397;28;20026;-69
2022/06/10 12:07:19;;;;;;;4.18;3.08;;;;;;;26.28;38.30;99198.47;4993579;28;20030;-70
2022/06/10 12:09:51;;;;;;;6.10;2.85;;;;;;;26.27;38.15;99194.94;4994243;28;20046;-69
2022/06/10 12:12:22;;;;;;;3.58;2.97;;;;;;;26.27;38.14;99196.81;4994077;28;20048;-70
2022/06/10 12:14:54;;;;;;;4.70;3.55;;;;;;;26.28;38.39;99204.72;4994002;28;20045;-69